Time;durP1;ratioP1;P1;durP2;ratioP2;P2;SDS_P1;SDS_P2;PMS_P1;PMS_P2;Temp;Humidity;BMP_temperature;BMP_pressure;BME280_temperature;BME280_humidity;BME280_pressure;Samples;Min_cycle;Max_cycle;Signal;HPM_P1;HPM_P2
2024/01/22 00:00:13;;;;;;;9.10;3.38;;;;;;;16.89;100.00;100830.31;5009846;28;20046;-46
2024/01/22 00:02:40;;;;;;;10.13;3.53;;;;;;;16.90;100.00;100827.03;5003170;28;20081;-47
2024/01/22 00:05:09;;;;;;;8.18;3.03;;;;;;;16.90;100.00;100806.59;5006475;28;20120;-46
2024/01/22 00:07:36;;;;;;;8.32;2.67;;;;;;;16.88;100.00;100809.09;5011970;28;20066;-45
2024/01/22 00:10:04;;;;;;;11.85;3.10;;;;;;;16.86;100.00;100801.13;5006829;28;20219;-45
2024/01/22 00:12:31;;;;;;;11.57;2.85;;;;;;;16.85;100.00;100793.16;5004233;28;20128;-46
2024/01/22 00:14:57;;;;;;;7.82;2.67;;;;;;;16.85;100.00;100796.72;5009700;28;20085;-47
2024/01/22 00:17:24;;;;;;;10.85;3.08;;;;;;;16.88;100.00;100798.63;5007315;28;20518;-47
2024/01/22 00:19:51;;;;;;;11.02;3.08;;;;;;;16.86;100.00;100791.91;5007844;28;20046;-47
2024/01/22 00:22:18;;;;;;;8.07;2.60;;;;;;;16.90;100.00;100784.13;5018816;28;20461;-47
2024/01/22 00:24:44;;;;;;;13.50;2.72;;;;;;;16.86;100.00;100780.69;5010489;28;20050;-46
2024/01/22 00:27:11;;;;;;;9.25;2.72;;;;;;;16.84;100.00;100767.09;5011944;28;20073;-47
2024/01/22 00:29:37;;;;;;;8.77;2.60;;;;;;;16.86;100.00;100761.03;5007854;28;20046;-50
2024/01/22 00:32:04;;;;;;;7.85;2.75;;;;;;;16.86;100.00;100775.84;5011332;28;20057;-47
2024/01/22 00:34:31;;;;;;;10.38;2.70;;;;;;;16.85;100.00;100768.66;5012072;28;20508;-46
2024/01/22 00:36:58;;;;;;;9.88;2.75;;;;;;;16.83;100.00;100756.31;5011417;28;20058;-46
2024/01/22 00:39:24;;;;;;;7.53;2.50;;;;;;;16.83;100.00;100743.09;5011431;28;20133;-48
2024/01/22 00:41:51;;;;;;;8.60;3.28;;;;;;;16.81;100.00;100728.72;5012898;28;20045;-46
2024/01/22 00:44:18;;;;;;;6.93;2.63;;;;;;;16.83;100.00;100726.22;5011199;28;20159;-48
2024/01/22 00:46:44;;;;;;;9.15;2.67;;;;;;;16.83;100.00;100720.63;5016427;28;20072;-47
2024/01/22 00:49:11;;;;;;;10.57;2.42;;;;;;;16.86;100.00;100707.69;5009723;28;20450;-46
2024/01/22 00:51:38;;;;;;;7.55;2.40;;;;;;;16.85;100.00;100694.88;5007298;28;20531;-46
2024/01/22 00:54:05;;;;;;;6.05;2.50;;;;;;;16.85;100.00;100698.47;5014550;28;20042;-46
2024/01/22 00:56:33;;;;;;;6.95;2.53;;;;;;;16.83;100.00;100680.50;5011889;28;20467;-46
2024/01/22 00:58:59;;;;;;;8.75;3.10;;;;;;;16.88;100.00;100682.75;5004528;28;20046;-47
2024/01/22 01:01:26;;;;;;;9.18;3.03;;;;;;;16.84;100.00;100671.63;5010446;28;20103;-46
2024/01/22 01:03:52;;;;;;;6.68;2.40;;;;;;;16.85;100.00;100661.97;5009656;28;20142;-46
2024/01/22 01:06:19;;;;;;;8.70;2.45;;;;;;;16.91;100.00;100664.97;5012669;28;20749;-47
2024/01/22 01:08:46;;;;;;;7.13;2.25;;;;;;;16.93;100.00;100651.22;5011209;28;20092;-47
2024/01/22 01:11:13;;;;;;;6.30;2.13;;;;;;;16.95;100.00;100649.53;5010810;28;20041;-48
2024/01/22 01:13:39;;;;;;;8.73;2.30;;;;;;;16.94;100.00;100644.38;5008586;28;20476;-47
2024/01/22 01:16:06;;;;;;;9.07;2.60;;;;;;;16.93;100.00;100623.94;5011510;28;20073;-48
2024/01/22 01:18:32;;;;;;;7.10;2.55;;;;;;;16.94;100.00;100628.31;5007721;28;20884;-46
2024/01/22 01:20:59;;;;;;;6.07;2.22;;;;;;;16.93;100.00;100611.91;5008704;28;20048;-49
2024/01/22 01:23:26;;;;;;;5.68;2.00;;;;;;;16.93;100.00;100604.28;5011173;28;20049;-49
2024/01/22 01:25:52;;;;;;;7.07;2.30;;;;;;;16.93;100.00;100609.91;5009122;28;20496;-47
2024/01/22 01:28:19;;;;;;;6.25;2.38;;;;;;;16.94;100.00;100591.00;5009728;28;20132;-46
2024/01/22 01:30:45;;;;;;;6.25;2.40;;;;;;;16.94;100.00;100585.41;5004185;28;20042;-49
2024/01/22 01:33:12;;;;;;;5.15;2.22;;;;;;;16.95;100.00;100581.38;5011838;28;20500;-45
2024/01/22 01:35:42;;;;;;;7.90;2.58;;;;;;;16.93;100.00;100579.00;5010882;28;20065;-46
2024/01/22 01:38:09;;;;;;;5.90;2.30;;;;;;;16.94;100.00;100574.16;5012722;28;20066;-47
2024/01/22 01:40:37;;;;;;;9.45;2.95;;;;;;;16.95;100.00;100576.50;5008660;28;20073;-46
2024/01/22 01:43:03;;;;;;;7.60;2.53;;;;;;;16.95;100.00;100567.31;5015588;28;20580;-45
2024/01/22 01:45:30;;;;;;;5.93;2.30;;;;;;;16.96;100.00;100571.69;5007564;28;20082;-46
2024/01/22 01:47:56;;;;;;;8.32;2.30;;;;;;;16.97;100.00;100567.63;5011103;28;20473;-46
2024/01/22 01:50:23;;;;;;;9.02;2.60;;;;;;;16.96;100.00;100580.91;5012419;28;20122;-48
2024/01/22 01:52:50;;;;;;;8.65;2.25;;;;;;;16.94;100.00;100574.94;5006899;28;20958;-48
2024/01/22 01:55:18;;;;;;;10.80;2.45;;;;;;;16.89;100.00;100574.78;5009205;28;20159;-46
2024/01/22 01:57:45;;;;;;;7.15;2.58;;;;;;;16.89;100.00;100571.97;5009224;28;20139;-47
2024/01/22 02:00:19;;;;;;;8.10;2.10;;;;;;;16.86;100.00;100595.38;5012446;28;20045;-46
2024/01/22 02:02:46;;;;;;;6.45;2.33;;;;;;;16.92;100.00;100588.66;5007408;28;20042;-50
2024/01/22 02:05:13;;;;;;;7.13;2.17;;;;;;;16.93;100.00;100595.88;5007724;28;20141;-48
2024/01/22 02:07:40;;;;;;;18.95;4.25;;;;;;;16.93;100.00;100573.41;5013383;28;20052;-47
2024/01/22 02:10:12;;;;;;;6.80;2.38;;;;;;;16.94;100.00;100572.16;5011318;28;20057;-48
2024/01/22 02:12:39;;;;;;;5.63;2.40;;;;;;;16.95;100.00;100578.56;5003386;28;20568;-49
2024/01/22 02:15:06;;;;;;;5.32;2.22;;;;;;;16.94;100.00;100580.56;5016334;28;20116;-48
2024/01/22 02:17:33;;;;;;;6.10;2.25;;;;;;;16.93;100.00;100581.81;5012325;28;20515;-50
2024/01/22 02:19:59;;;;;;;6.00;2.08;;;;;;;16.94;100.00;100580.56;5008674;28;20062;-45
2024/01/22 02:22:26;;;;;;;5.70;2.05;;;;;;;16.94;100.00;100549.69;5005833;28;20073;-46
2024/01/22 02:24:53;;;;;;;7.45;2.33;;;;;;;16.90;100.00;100574.31;5005970;28;20056;-49
2024/01/22 02:27:21;;;;;;;6.32;2.13;;;;;;;16.87;100.00;100569.63;5009352;28;20064;-50
2024/01/22 02:29:47;;;;;;;8.13;2.58;;;;;;;16.90;100.00;100548.25;5007945;28;20050;-46
2024/01/22 02:32:14;;;;;;;5.47;2.08;;;;;;;16.84;100.00;100539.69;5009747;28;20048;-46
2024/01/22 02:34:40;;;;;;;4.00;1.90;;;;;;;16.83;100.00;100540.94;5009394;28;20128;-47
2024/01/22 02:37:07;;;;;;;5.35;1.98;;;;;;;16.85;100.00;100527.19;5009438;28;20049;-48
2024/01/22 02:39:36;;;;;;;8.50;2.42;;;;;;;16.84;100.00;100524.84;5010821;28;20077;-46
2024/01/22 02:42:02;;;;;;;5.90;2.40;;;;;;;16.81;100.00;100506.16;5009357;28;20121;-46
2024/01/22 02:44:29;;;;;;;7.85;2.17;;;;;;;16.78;100.00;100487.44;5007060;28;20050;-48
2024/01/22 02:46:56;;;;;;;5.13;1.88;;;;;;;16.77;100.00;100475.41;5009220;28;20041;-47
2024/01/22 02:49:22;;;;;;;6.90;1.95;;;;;;;16.81;100.00;100464.81;5009384;28;20104;-49
2024/01/22 02:51:49;;;;;;;6.22;2.00;;;;;;;16.81;100.00;100435.97;5008203;28;20499;-49
2024/01/22 02:54:15;;;;;;;6.20;2.30;;;;;;;16.81;100.00;100421.94;5006403;28;20084;-46
2024/01/22 02:56:42;;;;;;;5.47;2.08;;;;;;;16.81;100.00;100433.91;5004088;28;20058;-47
2024/01/22 02:59:09;;;;;;;5.57;1.98;;;;;;;16.79;100.00;100441.25;5006006;28;20054;-49
2024/01/22 03:01:35;;;;;;;8.85;1.88;;;;;;;16.84;100.00;100463.88;5009777;28;20629;-50
2024/01/22 03:04:02;;;;;;;4.32;2.15;;;;;;;16.83;100.00;100447.50;5007087;28;20054;-45
2024/01/22 03:06:28;;;;;;;4.38;1.80;;;;;;;16.86;100.00;100454.97;5008168;28;20104;-48
2024/01/22 03:08:55;;;;;;;5.90;2.17;;;;;;;16.91;100.00;100449.53;5010657;28;20042;-48
2024/01/22 03:11:22;;;;;;;4.10;1.73;;;;;;;16.91;100.00;100423.50;5008598;28;20057;-47
2024/01/22 03:13:49;;;;;;;5.70;2.15;;;;;;;16.87;100.00;100420.81;5010411;28;20464;-49
2024/01/22 03:16:16;;;;;;;4.32;1.92;;;;;;;16.86;100.00;100433.31;5007328;28;20066;-47
2024/01/22 03:18:42;;;;;;;9.85;2.00;;;;;;;16.84;100.00;100435.78;5004823;28;20124;-49
2024/01/22 03:21:09;;;;;;;3.67;1.80;;;;;;;16.83;100.00;100425.81;5009868;28;20050;-48
2024/01/22 03:23:36;;;;;;;5.50;2.03;;;;;;;16.83;100.00;100427.84;5006407;28;20042;-51
2024/01/22 03:26:02;;;;;;;4.40;1.90;;;;;;;16.82;100.00;100441.13;5007010;28;20053;-48
2024/01/22 03:28:30;;;;;;;7.78;1.92;;;;;;;16.83;100.00;100436.25;5003535;28;20046;-51
2024/01/22 03:30:57;;;;;;;4.40;1.48;;;;;;;16.80;100.00;100412.72;5007623;28;20121;-48
2024/01/22 03:33:23;;;;;;;6.05;2.00;;;;;;;16.81;100.00;100408.66;5004248;28;20528;-51
2024/01/22 03:35:50;;;;;;;5.28;1.80;;;;;;;16.79;100.00;100396.34;5005758;28;20145;-48
2024/01/22 03:38:16;;;;;;;3.58;1.80;;;;;;;16.78;100.00;100401.16;5007590;28;20369;-56
2024/01/22 03:40:43;;;;;;;3.85;1.85;;;;;;;16.77;100.00;100394.00;5007833;28;20072;-47
2024/01/22 03:43:10;;;;;;;6.65;1.90;;;;;;;16.77;100.00;100382.75;5007616;28;20049;-50
2024/01/22 03:45:37;;;;;;;5.03;2.10;;;;;;;16.77;100.00;100388.38;5008479;28;20050;-48
2024/01/22 03:48:03;;;;;;;3.58;1.50;;;;;;;16.78;100.00;100384.31;5007552;28;20053;-50
2024/01/22 03:50:31;;;;;;;4.82;1.67;;;;;;;16.75;100.00;100376.81;5008142;28;20108;-50
2024/01/22 03:52:58;;;;;;;4.82;1.92;;;;;;;16.75;100.00;100374.03;5005197;28;20138;-49
2024/01/22 03:55:24;;;;;;;5.40;2.10;;;;;;;16.77;100.00;100362.31;5007960;28;20496;-48
2024/01/22 03:57:51;;;;;;;5.90;1.80;;;;;;;16.73;100.00;100359.69;5008355;28;20050;-50
2024/01/22 04:00:17;;;;;;;4.70;1.67;;;;;;;16.73;100.00;100344.88;5011368;28;20084;-50
2024/01/22 04:02:44;;;;;;;3.65;1.75;;;;;;;16.72;100.00;100344.09;5006926;28;20042;-49
2024/01/22 04:05:11;;;;;;;5.35;1.80;;;;;;;16.71;100.00;100334.09;5005153;28;20058;-48
2024/01/22 04:07:40;;;;;;;4.55;1.45;;;;;;;16.71;100.00;100339.72;5007005;28;20046;-48
2024/01/22 04:10:08;;;;;;;3.60;1.90;;;;;;;16.72;100.00;100326.47;5007732;28;20144;-51
2024/01/22 04:12:35;;;;;;;9.23;2.40;;;;;;;16.72;100.00;100335.69;5011721;28;20046;-51
2024/01/22 04:15:02;;;;;;;5.47;1.90;;;;;;;16.72;100.00;100340.50;5003994;28;20420;-50
2024/01/22 04:17:29;;;;;;;4.30;1.60;;;;;;;16.70;100.00;100329.75;5007945;28;20050;-48
2024/01/22 04:19:56;;;;;;;5.28;2.03;;;;;;;16.70;100.00;100323.34;5005503;28;20049;-49
2024/01/22 04:22:22;;;;;;;3.05;1.50;;;;;;;16.70;100.00;100332.56;5010175;28;20184;-47
2024/01/22 04:24:49;;;;;;;6.13;2.03;;;;;;;16.70;100.00;100317.72;5007028;28;20054;-50
2024/01/22 04:27:15;;;;;;;4.90;1.63;;;;;;;16.70;100.00;100326.94;5006479;28;20046;-47
2024/01/22 04:29:42;;;;;;;6.80;1.73;;;;;;;16.69;100.00;100322.59;5004335;28;20060;-48
2024/01/22 04:32:09;;;;;;;4.18;2.22;;;;;;;16.69;100.00;100307.75;5006596;28;20049;-50
2024/01/22 04:34:37;;;;;;;4.10;1.63;;;;;;;16.69;100.00;100304.97;5008746;28;20050;-48
2024/01/22 04:37:04;;;;;;;4.95;1.92;;;;;;;16.69;100.00;100305.75;5006659;28;20452;-48
2024/01/22 04:39:31;;;;;;;4.00;1.50;;;;;;;16.66;100.00;100297.47;5007583;28;20567;-47
2024/01/22 04:41:58;;;;;;;3.88;1.90;;;;;;;16.66;100.00;100298.25;5011028;28;20037;-48
2024/01/22 04:44:28;;;;;;;5.43;1.70;;;;;;;16.65;100.00;100293.13;5007905;28;20042;-50
2024/01/22 04:46:55;;;;;;;3.25;1.20;;;;;;;16.63;100.00;100299.19;5010639;28;20475;-49
2024/01/22 04:49:22;;;;;;;5.57;1.85;;;;;;;16.65;100.00;100296.69;5008020;28;20129;-50
2024/01/22 04:51:48;;;;;;;3.33;1.67;;;;;;;16.65;100.00;100296.69;5006847;28;20046;-48
2024/01/22 04:54:15;;;;;;;2.95;1.23;;;;;;;16.67;100.00;100290.59;5006369;28;20129;-47
2024/01/22 04:56:44;;;;;;;3.67;1.80;;;;;;;16.65;100.00;100279.09;5005895;28;20443;-50
2024/01/22 04:59:11;;;;;;;5.65;1.90;;;;;;;16.66;100.00;100275.81;5006541;28;20080;-49
2024/01/22 05:01:38;;;;;;;4.75;2.10;;;;;;;16.64;100.00;100275.50;5007658;28;20049;-49
2024/01/22 05:04:05;;;;;;;4.20;1.60;;;;;;;16.66;100.00;100277.81;5007429;28;20575;-48
2024/01/22 05:06:31;;;;;;;4.05;1.50;;;;;;;16.64;100.00;100263.50;5007747;28;20054;-49
2024/01/22 05:08:58;;;;;;;2.50;1.50;;;;;;;16.65;100.00;100265.06;5009502;28;20050;-48
2024/01/22 05:11:25;;;;;;;3.63;1.67;;;;;;;16.64;100.00;100257.88;5010944;28;20046;-48
2024/01/22 05:13:53;;;;;;;2.40;1.35;;;;;;;16.64;100.00;100269.88;5009765;28;20124;-49
2024/01/22 05:16:21;;;;;;;4.20;1.80;;;;;;;16.65;100.00;100259.44;5011343;28;20429;-50
2024/01/22 05:18:50;;;;;;;2.45;1.45;;;;;;;16.63;100.00;100259.91;5008955;28;20053;-51
2024/01/22 05:21:17;;;;;;;5.65;1.70;;;;;;;16.64;100.00;100252.28;5011702;28;20056;-47
2024/01/22 05:23:44;;;;;;;2.10;1.23;;;;;;;16.64;100.00;100255.84;5010074;28;20420;-49
2024/01/22 05:26:11;;;;;;;4.68;1.40;;;;;;;16.63;100.00;100251.47;5004692;28;20058;-48
2024/01/22 05:28:37;;;;;;;5.88;1.63;;;;;;;16.62;100.00;100255.53;5010544;28;20077;-51
2024/01/22 05:31:04;;;;;;;3.95;1.52;;;;;;;16.61;100.00;100248.34;5010245;28;20088;-50
2024/01/22 05:33:31;;;;;;;4.10;1.88;;;;;;;16.61;100.00;100245.56;5007535;28;20050;-48
2024/01/22 05:35:58;;;;;;;4.90;1.70;;;;;;;16.61;100.00;100236.38;5009871;28;20046;-50
2024/01/22 05:38:24;;;;;;;5.00;1.88;;;;;;;16.61;100.00;100233.56;5014033;28;20046;-47
2024/01/22 05:40:51;;;;;;;5.55;1.65;;;;;;;16.61;100.00;100230.75;5009206;28;20129;-49
2024/01/22 05:43:17;;;;;;;4.25;1.30;;;;;;;16.58;100.00;100218.44;5010985;28;20038;-49
2024/01/22 05:45:44;;;;;;;5.32;1.63;;;;;;;16.58;100.00;100231.69;5009379;28;20042;-50
2024/01/22 05:48:10;;;;;;;6.13;1.50;;;;;;;16.59;100.00;100233.25;5008581;28;20050;-51
2024/01/22 05:50:38;;;;;;;2.65;1.42;;;;;;;16.58;100.00;100238.06;5010586;28;20096;-50
2024/01/22 05:53:05;;;;;;;3.35;1.23;;;;;;;16.59;100.00;100255.69;5009831;28;20049;-48
2024/01/22 05:55:32;;;;;;;4.03;1.58;;;;;;;16.59;100.00;100227.63;5011492;28;20046;-48
2024/01/22 05:57:58;;;;;;;3.83;1.52;;;;;;;16.59;100.00;100234.03;5003507;28;20097;-49
2024/01/22 06:00:25;;;;;;;4.90;1.52;;;;;;;16.60;100.00;100243.22;5012886;28;20496;-49
2024/01/22 06:02:52;;;;;;;3.90;1.73;;;;;;;16.60;100.00;100232.78;5009821;28;20049;-49
2024/01/22 06:05:18;;;;;;;3.97;1.42;;;;;;;16.56;100.00;100218.13;5010481;28;20042;-50
2024/01/22 06:07:45;;;;;;;7.97;1.70;;;;;;;16.57;100.00;100210.47;5008599;28;20053;-48
2024/01/22 06:10:12;;;;;;;2.88;1.50;;;;;;;16.58;100.00;100200.81;5009797;28;20753;-51
2024/01/22 06:12:39;;;;;;;5.20;1.50;;;;;;;16.56;100.00;100220.94;5008037;28;20133;-47
2024/01/22 06:15:06;;;;;;;2.28;1.15;;;;;;;16.57;100.00;100222.50;5009778;28;20057;-48
2024/01/22 06:17:33;;;;;;;3.25;1.40;;;;;;;16.57;100.00;100218.91;5007789;28;20046;-48
2024/01/22 06:20:01;;;;;;;3.35;1.30;;;;;;;16.55;100.00;100208.16;5008792;28;20061;-48
2024/01/22 06:22:28;;;;;;;5.05;1.60;;;;;;;16.56;100.00;100215.31;5015088;28;20072;-48
2024/01/22 06:24:55;;;;;;;3.92;1.30;;;;;;;16.56;100.00;100218.13;5005557;28;20133;-48
2024/01/22 06:27:22;;;;;;;3.70;1.40;;;;;;;16.56;100.00;100211.72;5008940;28;20049;-50
2024/01/22 06:29:48;;;;;;;4.07;1.40;;;;;;;16.56;100.00;100215.31;5007753;28;20045;-47
2024/01/22 06:32:17;;;;;;;3.13;1.23;;;;;;;16.56;100.00;100206.13;5008895;28;20073;-48
2024/01/22 06:34:46;;;;;;;2.38;1.40;;;;;;;16.58;100.00;100215.63;5008880;28;20053;-50
2024/01/22 06:37:13;;;;;;;3.05;1.30;;;;;;;16.60;100.00;100212.34;5008333;28;20057;-49
2024/01/22 06:39:40;;;;;;;3.83;1.30;;;;;;;16.58;100.00;100215.63;5004132;28;20167;-48
2024/01/22 06:42:07;;;;;;;4.65;1.40;;;;;;;16.59;100.00;100208.00;5008723;28;20054;-48
2024/01/22 06:44:34;;;;;;;3.38;1.48;;;;;;;16.59;100.00;100208.00;5012323;28;20579;-47
2024/01/22 06:47:00;;;;;;;4.07;1.55;;;;;;;16.59;100.00;100202.38;5005245;28;20106;-45
2024/01/22 06:49:27;;;;;;;3.47;1.30;;;;;;;16.61;100.00;100219.53;5008907;28;20092;-49
2024/01/22 06:51:53;;;;;;;3.90;2.20;;;;;;;16.60;100.00;100227.16;5010454;28;20061;-49
2024/01/22 06:54:20;;;;;;;3.55;1.23;;;;;;;16.60;100.00;100220.75;5019340;28;20077;-47
2024/01/22 06:56:49;;;;;;;5.05;1.85;;;;;;;16.61;100.00;100219.53;5009138;28;20516;-47
2024/01/22 06:59:16;;;;;;;4.20;1.20;;;;;;;16.61;100.00;100231.53;5010372;28;20045;-49
2024/01/22 07:01:42;;;;;;;1.50;1.00;;;;;;;16.60;100.00;100221.56;5008826;28;20088;-49
2024/01/22 07:04:09;;;;;;;5.05;1.30;;;;;;;16.59;100.00;100208.00;5010396;28;20504;-49
2024/01/22 07:06:36;;;;;;;3.92;1.42;;;;;;;16.58;100.00;100210.00;5010149;28;20046;-46
2024/01/22 07:09:03;;;;;;;3.50;1.02;;;;;;;16.60;100.00;100213.13;5009995;28;20145;-48
2024/01/22 07:11:30;;;;;;;2.63;1.10;;;;;;;16.60;100.00;100204.72;5030382;28;20640;-46
2024/01/22 07:13:56;;;;;;;3.22;1.20;;;;;;;16.59;100.00;100224.81;5015265;28;20701;-51
2024/01/22 07:16:23;;;;;;;3.20;1.42;;;;;;;16.60;100.00;100223.56;5012285;28;20050;-48
2024/01/22 07:18:49;;;;;;;3.25;1.45;;;;;;;16.60;100.00;100226.38;5009857;28;20145;-50
2024/01/22 07:21:17;;;;;;;3.65;1.45;;;;;;;16.58;100.00;100226.84;5010472;28;20053;-48
2024/01/22 07:23:44;;;;;;;2.67;1.10;;;;;;;16.59;100.00;100220.00;5010268;28;20042;-51
2024/01/22 07:26:11;;;;;;;1.77;1.13;;;;;;;16.59;100.00;100222.81;5008207;28;20046;-47
2024/01/22 07:28:37;;;;;;;3.28;1.20;;;;;;;16.59;100.00;100210.78;5010084;28;20053;-47
2024/01/22 07:31:04;;;;;;;3.70;1.20;;;;;;;16.59;100.00;100219.22;5011106;28;20084;-50
2024/01/22 07:33:31;;;;;;;4.40;1.33;;;;;;;16.58;100.00;100215.63;5010716;28;20050;-50
2024/01/22 07:35:58;;;;;;;2.33;0.80;;;;;;;16.58;100.00;100210.00;5003610;28;20082;-50
2024/01/22 07:38:24;;;;;;;2.67;1.15;;;;;;;16.58;100.00;100212.06;5007330;28;20053;-47
2024/01/22 07:40:51;;;;;;;4.88;1.30;;;;;;;16.59;100.00;100213.59;5007462;28;20054;-47
2024/01/22 07:43:20;;;;;;;5.28;1.35;;;;;;;16.58;100.00;100212.06;5006761;28;20496;-46
2024/01/22 07:45:47;;;;;;;2.15;1.17;;;;;;;16.59;100.00;100216.41;5005487;28;20523;-50
2024/01/22 07:48:13;;;;;;;2.83;1.23;;;;;;;16.53;100.00;100202.22;5010374;28;20137;-41
2024/01/22 07:50:41;;;;;;;3.80;1.15;;;;;;;16.57;100.00;100222.50;5008602;28;20602;-46
2024/01/22 07:53:07;;;;;;;3.80;1.38;;;;;;;16.58;100.00;100240.13;5008350;28;20042;-45
2024/01/22 07:55:34;;;;;;;6.18;1.40;;;;;;;16.59;100.00;100242.44;5007226;28;20542;-43
2024/01/22 07:58:01;;;;;;;3.00;1.30;;;;;;;16.59;100.00;100245.25;5006716;28;20065;-47
2024/01/22 08:00:28;;;;;;;3.80;1.25;;;;;;;16.58;100.00;100248.53;5011195;28;20057;-45
2024/01/22 08:02:54;;;;;;;4.13;1.17;;;;;;;16.58;100.00;100249.28;5007484;28;20652;-46
2024/01/22 08:05:21;;;;;;;2.45;0.90;;;;;;;16.58;100.00;100266.13;5008932;28;20050;-46
2024/01/22 08:07:47;;;;;;;4.00;1.23;;;;;;;16.54;100.00;100254.28;5006849;28;20052;-46
2024/01/22 08:10:15;;;;;;;4.15;1.27;;;;;;;16.54;100.00;100254.28;5000025;28;20141;-46
2024/01/22 08:12:41;;;;;;;5.80;1.25;;;;;;;16.55;100.00;100267.09;5007711;28;20050;-45
2024/01/22 08:15:14;;;;;;;5.20;1.48;;;;;;;16.54;100.00;100259.16;5007761;28;20108;-44
2024/01/22 08:17:42;;;;;;;6.80;2.17;;;;;;;16.48;100.00;100277.84;5008104;28;20046;-46
2024/01/22 08:20:09;;;;;;;5.32;1.33;;;;;;;16.46;100.00;100255.88;5006188;28;20084;-46
2024/01/22 08:22:35;;;;;;;5.97;1.30;;;;;;;16.44;100.00;100263.19;5008337;28;20108;-48
2024/01/22 08:25:03;;;;;;;4.60;1.67;;;;;;;16.44;100.00;100275.19;4999620;28;20053;-44
2024/01/22 08:27:30;;;;;;;9.30;1.30;;;;;;;16.43;100.00;100282.06;5001664;28;20085;-46
2024/01/22 08:29:56;;;;;;;4.13;1.30;;;;;;;16.42;100.00;100282.50;5003709;28;20518;-46
2024/01/22 08:32:23;;;;;;;3.10;1.40;;;;;;;16.40;100.00;100285.78;5006460;28;20687;-45
2024/01/22 08:34:49;;;;;;;5.32;1.50;;;;;;;16.41;100.00;100264.91;5008351;28;20045;-46
2024/01/22 08:37:16;;;;;;;8.95;2.20;;;;;;;16.42;100.00;100290.94;5006924;28;20397;-42
2024/01/22 08:39:42;;;;;;;4.25;1.50;;;;;;;16.40;100.00;100270.97;5005909;28;20053;-47
2024/01/22 08:42:09;;;;;;;3.28;1.27;;;;;;;16.43;100.00;100289.69;5008291;28;20042;-44
2024/01/22 08:44:36;;;;;;;5.95;1.38;;;;;;;16.46;100.00;100271.91;5011620;28;20057;-47
2024/01/22 08:47:03;;;;;;;4.70;1.40;;;;;;;16.46;100.00;100269.09;5009981;28;20054;-46
2024/01/22 08:49:29;;;;;;;4.28;1.40;;;;;;;16.48;100.00;100261.00;5007876;28;20056;-45
2024/01/22 08:51:56;;;;;;;6.28;1.58;;;;;;;16.49;100.00;100252.13;5011102;28;20144;-49
2024/01/22 08:54:23;;;;;;;5.03;1.38;;;;;;;16.50;100.00;100269.72;5013394;28;20108;-45
2024/01/22 08:56:49;;;;;;;3.97;1.55;;;;;;;16.50;100.00;100261.31;5007760;28;20137;-44
2024/01/22 08:59:16;;;;;;;5.75;1.48;;;;;;;16.50;100.00;100258.50;5011607;28;20058;-47
2024/01/22 09:01:43;;;;;;;8.00;1.83;;;;;;;16.48;100.00;100253.34;5010210;28;20046;-47
2024/01/22 09:04:09;;;;;;;4.47;1.80;;;;;;;16.48;100.00;100246.97;5012225;28;20070;-48
2024/01/22 09:06:36;;;;;;;2.83;1.17;;;;;;;16.46;100.00;100247.44;5001365;28;20077;-45
2024/01/22 09:09:05;;;;;;;7.85;1.70;;;;;;;16.47;100.00;100257.41;5005608;28;20054;-45
2024/01/22 09:11:32;;;;;;;5.15;1.38;;;;;;;16.46;100.00;100258.66;5006535;28;20046;-43
2024/01/22 09:13:58;;;;;;;6.32;1.77;;;;;;;16.48;100.00;100242.13;5004863;28;20044;-48
2024/01/22 09:16:26;;;;;;;5.85;1.35;;;;;;;16.48;100.00;100244.94;5012752;28;20058;-50
2024/01/22 09:18:53;;;;;;;8.15;1.27;;;;;;;16.46;100.00;100253.06;5008579;28;20053;-45
2024/01/22 09:21:19;;;;;;;9.32;2.05;;;;;;;16.48;100.00;100247.75;5007228;28;20135;-44
2024/01/22 09:23:46;;;;;;;4.82;1.50;;;;;;;16.49;100.00;100251.34;5011532;28;20046;-45
2024/01/22 09:26:13;;;;;;;7.47;1.70;;;;;;;16.49;100.00;100251.34;5011889;28;20060;-44
2024/01/22 09:28:39;;;;;;;5.22;1.77;;;;;;;16.47;100.00;100246.19;5011006;28;20452;-48
2024/01/22 09:31:06;;;;;;;3.60;1.25;;;;;;;16.49;100.00;100257.75;5011258;28;20057;-45
2024/01/22 09:33:33;;;;;;;4.30;1.40;;;;;;;16.50;100.00;100241.66;5011422;28;20124;-45
2024/01/22 09:36:03;;;;;;;3.60;1.35;;;;;;;16.49;100.00;100235.28;5012297;28;20081;-46
2024/01/22 09:38:30;;;;;;;6.13;1.80;;;;;;;16.50;100.00;100236.84;5012079;28;20047;-46
2024/01/22 09:40:56;;;;;;;5.68;1.25;;;;;;;16.51;100.00;100232.03;5011682;28;20046;-47
2024/01/22 09:43:23;;;;;;;3.45;1.25;;;;;;;16.51;100.00;100232.78;5010987;28;20073;-47
2024/01/22 09:45:50;;;;;;;4.70;1.65;;;;;;;16.50;100.00;100239.66;5008953;28;20073;-43
2024/01/22 09:48:17;;;;;;;5.40;1.60;;;;;;;16.49;100.00;100246.50;5010359;28;20049;-45
2024/01/22 09:50:49;;;;;;;5.50;1.50;;;;;;;16.49;100.00;100242.91;5007612;28;20057;-47
2024/01/22 09:53:17;;;;;;;9.55;1.95;;;;;;;16.47;100.00;100243.38;5009950;28;20049;-46
2024/01/22 09:55:44;;;;;;;5.03;1.50;;;;;;;16.47;100.00;100251.03;5008107;28;20046;-46
2024/01/22 09:58:26;;;;;;;4.70;1.45;;;;;;;16.48;100.00;100239.31;5010320;28;20060;-45
2024/01/22 10:00:53;;;;;;;5.93;1.60;;;;;;;16.52;100.00;100244.78;5010950;28;20050;-46
2024/01/22 10:03:21;;;;;;;8.77;1.38;;;;;;;16.52;100.00;100237.16;5012265;28;20071;-45
2024/01/22 10:05:51;;;;;;;7.65;1.63;;;;;;;16.51;100.00;100255.22;5007905;28;20050;-43
2024/01/22 10:08:19;;;;;;;5.85;1.60;;;;;;;16.51;100.00;100246.81;5006978;28;20539;-47
2024/01/22 10:10:45;;;;;;;5.30;1.50;;;;;;;16.52;100.00;100247.59;5008985;28;20077;-47
2024/01/22 10:13:12;;;;;;;5.07;1.60;;;;;;;16.51;100.00;100246.81;5013888;28;20042;-46
2024/01/22 10:15:39;;;;;;;6.53;1.60;;;;;;;16.51;100.00;100255.22;5008929;28;20057;-44
2024/01/22 10:18:16;;;;;;;7.90;1.70;;;;;;;16.53;100.00;100237.91;5009410;28;20065;-45
2024/01/22 10:20:45;;;;;;;8.00;1.70;;;;;;;16.47;100.00;100226.56;5009809;28;20515;-45
2024/01/22 10:23:13;;;;;;;6.32;1.67;;;;;;;16.51;100.00;100235.59;5012147;28;20125;-44
2024/01/22 10:25:40;;;;;;;6.00;1.75;;;;;;;16.50;100.00;100222.03;5012440;28;20127;-48
2024/01/22 10:28:10;;;;;;;8.35;2.05;;;;;;;16.49;100.00;100234.50;5012778;28;20049;-43
2024/01/22 10:30:38;;;;;;;6.97;1.77;;;;;;;16.52;100.00;100244.78;5010982;28;20096;-46
2024/01/22 10:33:15;;;;;;;4.32;1.55;;;;;;;16.53;100.00;100221.88;5011372;28;20163;-46
2024/01/22 10:35:44;;;;;;;7.28;1.80;;;;;;;16.53;100.00;100213.47;5007683;28;20154;-46
2024/01/22 10:38:13;;;;;;;9.82;1.90;;;;;;;16.53;100.00;100210.66;5004896;28;20050;-46
2024/01/22 10:40:40;;;;;;;4.55;1.38;;;;;;;16.52;100.00;100206.31;5001840;28;20050;-45
2024/01/22 10:43:26;;;;;;;7.00;1.50;;;;;;;16.54;100.00;100212.19;5006813;28;20057;-44
2024/01/22 10:45:57;;;;;;;4.90;1.50;;;;;;;16.53;100.00;100199.44;5006861;28;20054;-47
2024/01/22 10:48:28;;;;;;;4.53;1.52;;;;;;;16.55;100.00;100202.56;5009243;28;20076;-48
2024/01/22 10:51:09;;;;;;;5.40;1.38;;;;;;;16.54;100.00;100212.19;5009474;28;20798;-46
2024/01/22 10:53:38;;;;;;;4.97;1.42;;;;;;;16.54;100.00;100195.38;5011592;28;20053;-44
2024/01/22 10:56:20;;;;;;;5.97;1.50;;;;;;;16.54;100.00;100203.78;5009104;28;20575;-45
2024/01/22 10:58:49;;;;;;;4.63;1.75;;;;;;;16.54;100.00;100197.41;5005950;28;20647;-48
2024/01/22 11:01:21;;;;;;;5.10;1.30;;;;;;;16.55;100.00;100198.97;5009682;28;20141;-43
2024/01/22 11:03:53;;;;;;;4.97;1.75;;;;;;;16.54;100.00;100192.56;5017686;28;20480;-45
2024/01/22 11:06:24;;;;;;;6.88;1.65;;;;;;;16.56;100.00;100201.28;5007515;28;20851;-45
2024/01/22 11:08:54;;;;;;;4.68;1.50;;;;;;;16.57;100.00;100204.84;5009971;28;20571;-45
2024/01/22 11:11:26;;;;;;;6.40;1.60;;;;;;;16.57;100.00;100191.63;5003637;28;20054;-46
2024/01/22 11:14:01;;;;;;;5.97;1.20;;;;;;;16.57;100.00;100196.44;5008580;28;20056;-46
2024/01/22 11:16:29;;;;;;;3.92;1.30;;;;;;;16.58;100.00;100187.56;5008795;28;20046;-47